Time;durP1;ratioP1;P1;durP2;ratioP2;P2;SDS_P1;SDS_P2;PMS_P1;PMS_P2;Temp;Humidity;BMP_temperature;BMP_pressure;BME280_temperature;BME280_humidity;BME280_pressure;Samples;Min_cycle;Max_cycle;Signal;HPM_P1;HPM_P2
2021/12/09 00:01:10;;;;;;;10.07;5.68;;;;;;;;;;5060982;28;20056;-77
2021/12/09 00:03:39;;;;;;;12.82;6.28;;;;;;;;;;5060443;28;20041;-80
2021/12/09 00:06:05;;;;;;;12.57;5.85;;;;;;;;;;5044914;28;20037;-78
2021/12/09 00:08:31;;;;;;;14.10;6.10;;;;;;;;;;5067047;28;20064;-78
2021/12/09 00:10:58;;;;;;;11.52;5.88;;;;;;;;;;5052889;28;20044;-78
2021/12/09 00:13:24;;;;;;;13.10;5.88;;;;;;;;;;5055026;28;20067;-78
2021/12/09 00:15:50;;;;;;;19.33;5.88;;;;;;;;;;5059645;28;20045;-79
2021/12/09 00:18:17;;;;;;;12.50;5.95;;;;;;;;;;5044623;28;20048;-79
2021/12/09 00:20:43;;;;;;;16.75;6.30;;;;;;;;;;5045195;28;20049;-79
2021/12/09 00:23:09;;;;;;;16.90;6.05;;;;;;;;;;5044646;28;20037;-81
2021/12/09 00:25:35;;;;;;;15.27;6.28;;;;;;;;;;5060979;28;20044;-79
2021/12/09 00:28:01;;;;;;;13.95;5.85;;;;;;;;;;5045735;28;20106;-83
2021/12/09 00:30:29;;;;;;;13.95;5.72;;;;;;;;;;5061757;28;20079;-80
2021/12/09 00:32:55;;;;;;;15.57;6.20;;;;;;;;;;5061757;28;20444;-81
2021/12/09 00:35:27;;;;;;;14.50;5.97;;;;;;;;;;5060067;28;20041;-80
2021/12/09 00:37:58;;;;;;;13.68;6.45;;;;;;;;;;5059686;28;20033;-80
2021/12/09 00:40:24;;;;;;;11.85;5.75;;;;;;;;;;5042945;28;20048;-78
2021/12/09 00:42:52;;;;;;;13.75;5.90;;;;;;;;;;5058755;28;20041;-80
2021/12/09 00:45:18;;;;;;;10.80;6.30;;;;;;;;;;5043290;28;20048;-81
2021/12/09 00:47:45;;;;;;;19.73;7.00;;;;;;;;;;5049667;28;20044;-82
2021/12/09 00:50:11;;;;;;;13.63;6.60;;;;;;;;;;5062029;28;20040;-83
2021/12/09 00:52:37;;;;;;;13.20;6.25;;;;;;;;;;5060872;28;20048;-79
2021/12/09 00:55:03;;;;;;;13.77;6.32;;;;;;;;;;5042131;28;20047;-78
2021/12/09 00:57:29;;;;;;;15.32;6.82;;;;;;;;;;5058767;28;20037;-78
2021/12/09 00:59:55;;;;;;;13.82;5.93;;;;;;;;;;5041424;28;20047;-79
2021/12/09 01:02:21;;;;;;;13.38;6.10;;;;;;;;;;5058951;28;20088;-79
2021/12/09 01:04:47;;;;;;;11.10;6.07;;;;;;;;;;5043664;28;20041;-81
2021/12/09 01:07:13;;;;;;;16.58;6.85;;;;;;;;;;5062562;28;20044;-80
2021/12/09 01:09:39;;;;;;;14.23;6.45;;;;;;;;;;5060839;28;20036;-80
2021/12/09 01:12:05;;;;;;;22.33;6.25;;;;;;;;;;5059842;28;20098;-80
2021/12/09 01:14:31;;;;;;;16.27;6.10;;;;;;;;;;5059847;28;20044;-81
2021/12/09 01:16:57;;;;;;;22.92;6.05;;;;;;;;;;5061732;28;20442;-81
2021/12/09 01:19:23;;;;;;;14.70;5.90;;;;;;;;;;5044253;28;20075;-81
2021/12/09 01:21:49;;;;;;;11.75;6.32;;;;;;;;;;5044232;28;20041;-81
2021/12/09 01:24:17;;;;;;;14.57;6.55;;;;;;;;;;5043642;28;20072;-81
2021/12/09 01:26:45;;;;;;;21.58;7.00;;;;;;;;;;5060331;28;20479;-82
2021/12/09 01:29:18;;;;;;;13.52;6.63;;;;;;;;;;5060451;28;20384;-83
2021/12/09 01:31:53;;;;;;;14.52;6.50;;;;;;;;;;5060689;28;20045;-82
2021/12/09 01:34:21;;;;;;;13.10;6.75;;;;;;;;;;5044273;28;20049;-81
2021/12/09 01:36:49;;;;;;;13.20;6.80;;;;;;;;;;5043185;28;20049;-82
2021/12/09 01:39:15;;;;;;;15.77;6.93;;;;;;;;;;5044517;28;20033;-82
2021/12/09 01:41:42;;;;;;;14.45;6.63;;;;;;;;;;5061914;28;20059;-79
2021/12/09 01:44:08;;;;;;;14.45;6.97;;;;;;;;;;5042948;28;20045;-79
2021/12/09 01:46:34;;;;;;;14.32;6.43;;;;;;;;;;5060667;28;20453;-78
2021/12/09 01:49:00;;;;;;;13.10;6.55;;;;;;;;;;5043901;28;20087;-78
2021/12/09 01:51:26;;;;;;;18.02;7.47;;;;;;;;;;5047062;28;20045;-80
2021/12/09 01:53:52;;;;;;;18.00;6.78;;;;;;;;;;5069842;28;20064;-81
2021/12/09 01:56:23;;;;;;;17.20;7.82;;;;;;;;;;5045161;28;20095;-83
2021/12/09 01:58:53;;;;;;;17.40;7.53;;;;;;;;;;5060508;28;20033;-83
2021/12/09 02:01:19;;;;;;;17.60;7.82;;;;;;;;;;5070799;28;20037;-79
2021/12/09 02:03:45;;;;;;;18.27;7.75;;;;;;;;;;5057386;28;20068;-78
2021/12/09 02:06:11;;;;;;;15.10;7.22;;;;;;;;;;5065449;28;20330;-81
2021/12/09 02:08:37;;;;;;;16.80;7.15;;;;;;;;;;5061168;28;20044;-80
2021/12/09 02:11:03;;;;;;;19.70;8.00;;;;;;;;;;5060980;28;20037;-81
2021/12/09 02:13:29;;;;;;;20.73;7.63;;;;;;;;;;5063732;28;20049;-81
2021/12/09 02:15:56;;;;;;;18.13;7.22;;;;;;;;;;5063496;28;20070;-82
2021/12/09 02:18:22;;;;;;;14.85;8.43;;;;;;;;;;5045848;28;20064;-79
2021/12/09 02:21:03;;;;;;;15.82;7.18;;;;;;;;;;5063179;28;20056;-80
2021/12/09 02:23:29;;;;;;;15.88;6.90;;;;;;;;;;5043574;28;20140;-80
2021/12/09 02:25:56;;;;;;;16.88;7.53;;;;;;;;;;5060943;28;20072;-80
2021/12/09 02:28:22;;;;;;;18.75;8.48;;;;;;;;;;5064056;28;20479;-80
2021/12/09 02:30:48;;;;;;;14.80;7.70;;;;;;;;;;5065878;28;20159;-80
2021/12/09 02:33:14;;;;;;;15.98;7.55;;;;;;;;;;5048969;28;20033;-80
2021/12/09 02:35:40;;;;;;;18.92;7.18;;;;;;;;;;5064823;28;20037;-83
2021/12/09 02:38:07;;;;;;;18.90;6.93;;;;;;;;;;5046059;28;20052;-79
2021/12/09 02:40:34;;;;;;;19.08;6.95;;;;;;;;;;5045093;28;20357;-80
2021/12/09 02:43:00;;;;;;;16.10;7.20;;;;;;;;;;5045742;28;20037;-80
2021/12/09 02:45:26;;;;;;;19.58;7.03;;;;;;;;;;5064287;28;20037;-83
2021/12/09 02:47:52;;;;;;;13.43;6.90;;;;;;;;;;5063145;28;20044;-81
2021/12/09 02:50:18;;;;;;;19.00;8.00;;;;;;;;;;5065191;28;20101;-80
2021/12/09 02:52:44;;;;;;;19.80;6.97;;;;;;;;;;5065031;28;20072;-80
2021/12/09 02:55:10;;;;;;;16.52;7.72;;;;;;;;;;5048449;28;20037;-80
2021/12/09 02:57:36;;;;;;;18.58;8.35;;;;;;;;;;5075954;28;20032;-83
2021/12/09 03:00:03;;;;;;;14.13;6.93;;;;;;;;;;5071299;28;20037;-82
2021/12/09 03:02:29;;;;;;;18.95;7.57;;;;;;;;;;5064860;28;20119;-81
2021/12/09 03:04:58;;;;;;;15.45;7.63;;;;;;;;;;5066266;28;20068;-83
2021/12/09 03:07:27;;;;;;;18.30;8.23;;;;;;;;;;5082672;28;20071;-82
2021/12/09 03:09:56;;;;;;;17.17;7.88;;;;;;;;;;5084268;28;20056;-81
2021/12/09 03:12:26;;;;;;;29.33;8.80;;;;;;;;;;5085929;28;20222;-78
2021/12/09 03:14:52;;;;;;;18.63;8.40;;;;;;;;;;5079489;28;20079;-79
2021/12/09 03:17:18;;;;;;;16.38;8.20;;;;;;;;;;5075596;28;20106;-79
2021/12/09 03:19:44;;;;;;;19.40;7.97;;;;;;;;;;5091164;28;20052;-78
2021/12/09 03:22:10;;;;;;;16.58;8.43;;;;;;;;;;5071892;28;20043;-80
2021/12/09 03:24:36;;;;;;;16.90;7.90;;;;;;;;;;5083161;28;20033;-83
2021/12/09 03:27:03;;;;;;;16.00;7.95;;;;;;;;;;5083863;28;20056;-82
2021/12/09 03:29:29;;;;;;;14.80;7.65;;;;;;;;;;5086646;28;20029;-83
2021/12/09 03:32:05;;;;;;;21.55;8.55;;;;;;;;;;5073170;28;20032;-79
2021/12/09 03:34:31;;;;;;;22.63;8.25;;;;;;;;;;5097370;28;20033;-80
2021/12/09 03:36:58;;;;;;;15.77;8.48;;;;;;;;;;5086043;28;20044;-82
2021/12/09 03:39:24;;;;;;;22.80;9.02;;;;;;;;;;5082928;28;20040;-82
2021/12/09 03:41:51;;;;;;;17.52;8.45;;;;;;;;;;5065698;28;20049;-84
2021/12/09 03:44:17;;;;;;;22.90;10.02;;;;;;;;;;5083240;28;20036;-83
2021/12/09 03:46:43;;;;;;;19.58;9.57;;;;;;;;;;5067496;28;20365;-81
2021/12/09 03:49:09;;;;;;;20.35;9.50;;;;;;;;;;5065990;28;20036;-82
2021/12/09 03:51:35;;;;;;;18.38;9.05;;;;;;;;;;5081680;28;20051;-82
2021/12/09 03:54:03;;;;;;;19.27;8.68;;;;;;;;;;5065054;28;20036;-81
2021/12/09 03:56:29;;;;;;;18.60;8.43;;;;;;;;;;5080769;28;20101;-81
2021/12/09 03:58:54;;;;;;;19.15;9.43;;;;;;;;;;5082663;28;20064;-80
2021/12/09 04:01:20;;;;;;;22.30;10.15;;;;;;;;;;5083385;28;20025;-79
2021/12/09 04:03:46;;;;;;;20.33;9.63;;;;;;;;;;5089803;28;20047;-80
2021/12/09 04:06:13;;;;;;;19.42;9.57;;;;;;;;;;5085028;28;20037;-81
2021/12/09 04:08:39;;;;;;;22.30;10.35;;;;;;;;;;5083467;28;20436;-81
2021/12/09 04:11:05;;;;;;;21.55;10.32;;;;;;;;;;5067305;28;20455;-82
2021/12/09 04:13:32;;;;;;;19.35;10.13;;;;;;;;;;5081536;28;20044;-81
2021/12/09 04:16:01;;;;;;;26.88;10.52;;;;;;;;;;5064361;28;20047;-81
2021/12/09 04:18:27;;;;;;;20.17;10.35;;;;;;;;;;5080940;28;20033;-81
2021/12/09 04:20:53;;;;;;;26.50;10.25;;;;;;;;;;5065336;28;20059;-80
2021/12/09 04:23:19;;;;;;;20.23;10.23;;;;;;;;;;5064413;28;20448;-81
2021/12/09 04:25:45;;;;;;;21.10;11.23;;;;;;;;;;5082660;28;20037;-81
2021/12/09 04:28:11;;;;;;;21.50;12.30;;;;;;;;;;5080606;28;20044;-83
2021/12/09 04:30:40;;;;;;;22.90;11.73;;;;;;;;;;5063525;28;20474;-80
2021/12/09 04:33:06;;;;;;;23.48;11.73;;;;;;;;;;5063008;28;20060;-82
2021/12/09 04:35:32;;;;;;;21.65;11.40;;;;;;;;;;5081760;28;20044;-78
2021/12/09 04:37:58;;;;;;;25.90;11.13;;;;;;;;;;5064595;28;20083;-80
2021/12/09 04:40:24;;;;;;;21.50;11.68;;;;;;;;;;5082069;28;20048;-80
2021/12/09 04:42:50;;;;;;;19.20;10.68;;;;;;;;;;5082542;28;20033;-80
2021/12/09 04:45:16;;;;;;;24.95;10.35;;;;;;;;;;5086108;28;20464;-80
2021/12/09 04:47:42;;;;;;;21.52;10.40;;;;;;;;;;5098876;28;20044;-80
2021/12/09 04:50:08;;;;;;;18.92;10.45;;;;;;;;;;5079321;28;20036;-79
2021/12/09 04:52:34;;;;;;;25.08;10.45;;;;;;;;;;5077291;28;20015;-80
2021/12/09 04:55:00;;;;;;;26.00;11.15;;;;;;;;;;5074953;28;20115;-81
2021/12/09 04:57:26;;;;;;;20.27;10.88;;;;;;;;;;5069748;28;20047;-81
2021/12/09 04:59:52;;;;;;;20.85;10.23;;;;;;;;;;5082349;28;20040;-81
2021/12/09 05:02:28;;;;;;;23.17;10.93;;;;;;;;;;5082857;28;20041;-80
2021/12/09 05:04:54;;;;;;;19.85;11.75;;;;;;;;;;5082314;28;20090;-81
2021/12/09 05:07:20;;;;;;;22.45;10.70;;;;;;;;;;5066068;28;20086;-82
2021/12/09 05:09:50;;;;;;;24.35;11.18;;;;;;;;;;5073585;28;20100;-81
2021/12/09 05:12:17;;;;;;;24.58;10.50;;;;;;;;;;5084934;28;20040;-80
2021/12/09 05:14:47;;;;;;;19.40;10.35;;;;;;;;;;5082951;28;20066;-78
2021/12/09 05:17:13;;;;;;;21.30;10.80;;;;;;;;;;5064808;28;20036;-80
2021/12/09 05:19:39;;;;;;;23.05;10.30;;;;;;;;;;5091860;28;20080;-82
2021/12/09 05:22:06;;;;;;;21.80;9.73;;;;;;;;;;5069812;28;20040;-82
2021/12/09 05:24:34;;;;;;;22.23;10.25;;;;;;;;;;5082298;28;20064;-81
2021/12/09 05:27:00;;;;;;;20.92;10.05;;;;;;;;;;5092923;28;20083;-81
2021/12/09 05:29:32;;;;;;;22.27;9.63;;;;;;;;;;5073564;28;20024;-80
2021/12/09 05:32:13;;;;;;;16.50;8.90;;;;;;;;;;5082108;28;20046;-80
2021/12/09 05:34:42;;;;;;;21.52;9.63;;;;;;;;;;5075270;28;20084;-81
2021/12/09 05:37:08;;;;;;;17.27;9.00;;;;;;;;;;5097510;28;20052;-82
2021/12/09 05:39:36;;;;;;;22.70;9.10;;;;;;;;;;5081373;28;20080;-82
2021/12/09 05:42:02;;;;;;;19.48;9.40;;;;;;;;;;5098123;28;20055;-81
2021/12/09 05:44:29;;;;;;;24.63;10.23;;;;;;;;;;5097823;28;20040;-82
2021/12/09 05:46:55;;;;;;;26.23;10.25;;;;;;;;;;5097830;28;20028;-79
2021/12/09 05:49:21;;;;;;;21.10;10.05;;;;;;;;;;5098053;28;20035;-77
2021/12/09 05:51:47;;;;;;;23.63;10.00;;;;;;;;;;5091293;28;20539;-79
2021/12/09 05:54:13;;;;;;;31.20;11.75;;;;;;;;;;5073572;28;20105;-79
2021/12/09 05:56:39;;;;;;;23.85;10.60;;;;;;;;;;5089866;28;20041;-78
2021/12/09 05:59:07;;;;;;;17.17;9.63;;;;;;;;;;5088794;28;20237;-80
2021/12/09 06:01:33;;;;;;;25.02;10.18;;;;;;;;;;5075687;28;20082;-79
2021/12/09 06:03:59;;;;;;;22.40;11.90;;;;;;;;;;5092503;28;20037;-78
2021/12/09 06:06:25;;;;;;;18.77;9.57;;;;;;;;;;5092498;28;20088;-78
2021/12/09 06:08:51;;;;;;;22.65;10.07;;;;;;;;;;5092265;28;20096;-79
2021/12/09 06:11:17;;;;;;;22.73;9.75;;;;;;;;;;5093140;28;20044;-78
2021/12/09 06:13:45;;;;;;;23.98;11.32;;;;;;;;;;5093668;28;20064;-80
2021/12/09 06:16:11;;;;;;;23.10;11.75;;;;;;;;;;5095354;28;20046;-80
2021/12/09 06:18:37;;;;;;;23.85;12.10;;;;;;;;;;5070679;28;20115;-80
2021/12/09 06:21:03;;;;;;;27.02;11.75;;;;;;;;;;5088115;28;20060;-81
2021/12/09 06:23:29;;;;;;;33.38;11.98;;;;;;;;;;5070189;28;20452;-81
2021/12/09 06:25:55;;;;;;;24.25;11.48;;;;;;;;;;5070421;28;20051;-81
2021/12/09 06:28:21;;;;;;;30.10;12.55;;;;;;;;;;5078185;28;20044;-80
2021/12/09 06:30:47;;;;;;;23.40;10.85;;;;;;;;;;5090673;28;20430;-80
2021/12/09 06:33:13;;;;;;;22.55;10.38;;;;;;;;;;5088681;28;20032;-80
2021/12/09 06:35:40;;;;;;;24.00;10.68;;;;;;;;;;5069398;28;20064;-77
2021/12/09 06:38:11;;;;;;;22.58;10.05;;;;;;;;;;5085691;28;20032;-78
2021/12/09 06:40:37;;;;;;;26.27;10.75;;;;;;;;;;5071062;28;20037;-79
2021/12/09 06:43:03;;;;;;;21.15;11.45;;;;;;;;;;5088054;28;20049;-78
2021/12/09 06:45:29;;;;;;;29.40;10.73;;;;;;;;;;5087031;28;20041;-77
2021/12/09 06:47:55;;;;;;;24.60;10.68;;;;;;;;;;5088726;28;20120;-77
2021/12/09 06:50:21;;;;;;;27.63;14.50;;;;;;;;;;5088831;28;20055;-78
2021/12/09 06:52:47;;;;;;;27.40;12.48;;;;;;;;;;5088365;28;20345;-77
2021/12/09 06:55:13;;;;;;;24.63;12.45;;;;;;;;;;5087972;28;20041;-80
2021/12/09 06:57:39;;;;;;;28.50;11.80;;;;;;;;;;5089151;28;20088;-80
2021/12/09 07:00:07;;;;;;;22.38;11.73;;;;;;;;;;5091297;28;20036;-80
2021/12/09 07:02:33;;;;;;;23.90;11.55;;;;;;;;;;5091882;28;20036;-78
2021/12/09 07:04:59;;;;;;;21.83;12.10;;;;;;;;;;5089493;28;20051;-79
2021/12/09 07:07:25;;;;;;;21.70;11.02;;;;;;;;;;5072386;28;20040;-77
2021/12/09 07:09:51;;;;;;;30.52;11.65;;;;;;;;;;5075301;28;20059;-79
2021/12/09 07:12:17;;;;;;;29.63;12.80;;;;;;;;;;5088848;28;20037;-81
2021/12/09 07:14:43;;;;;;;26.65;13.35;;;;;;;;;;5078048;28;20047;-80
2021/12/09 07:17:13;;;;;;;26.95;14.10;;;;;;;;;;5097250;28;20033;-78
2021/12/09 07:19:39;;;;;;;24.40;12.45;;;;;;;;;;5076609;28;20048;-78
2021/12/09 07:22:05;;;;;;;23.98;11.90;;;;;;;;;;5089508;28;20062;-78
2021/12/09 07:24:34;;;;;;;26.13;13.32;;;;;;;;;;5069653;28;20090;-78
2021/12/09 07:27:01;;;;;;;33.15;13.05;;;;;;;;;;5069449;28;20044;-78
2021/12/09 07:29:27;;;;;;;27.33;12.02;;;;;;;;;;5067832;28;20090;-78
2021/12/09 07:31:56;;;;;;;27.35;13.45;;;;;;;;;;5085572;28;20040;-78
2021/12/09 07:34:23;;;;;;;25.35;13.23;;;;;;;;;;5068285;28;20503;-78
2021/12/09 07:39:38;;;;;;;31.77;15.13;;;;;;;;;;5085111;28;20032;-77
2021/12/09 07:42:11;;;;;;;27.42;13.40;;;;;;;;;;5085625;28;20045;-78
2021/12/09 07:44:38;;;;;;;27.83;14.20;;;;;;;;;;5067920;28;20032;-78
2021/12/09 07:47:04;;;;;;;28.05;15.30;;;;;;;;;;5084164;28;20037;-78
2021/12/09 07:49:35;;;;;;;29.98;16.25;;;;;;;;;;5068231;28;20032;-81
2021/12/09 07:52:04;;;;;;;30.13;12.13;;;;;;;;;;5085862;28;20037;-78
2021/12/09 07:54:29;;;;;;;21.20;12.13;;;;;;;;;;5087678;28;20074;-77
2021/12/09 07:56:56;;;;;;;23.35;12.15;;;;;;;;;;5088389;28;20083;-78
2021/12/09 07:59:21;;;;;;;26.02;11.68;;;;;;;;;;5072627;28;20036;-78
2021/12/09 08:01:48;;;;;;;23.42;12.38;;;;;;;;;;5091908;28;20047;-79
2021/12/09 08:04:14;;;;;;;25.38;11.38;;;;;;;;;;5078366;28;20037;-77
2021/12/09 08:06:40;;;;;;;21.95;12.95;;;;;;;;;;5075872;28;20114;-78
2021/12/09 08:09:08;;;;;;;22.20;12.48;;;;;;;;;;5072630;28;20052;-78
2021/12/09 08:11:36;;;;;;;28.33;14.05;;;;;;;;;;5072410;28;20060;-77
2021/12/09 08:14:02;;;;;;;29.85;14.75;;;;;;;;;;5087967;28;20045;-78
2021/12/09 08:16:31;;;;;;;26.20;14.20;;;;;;;;;;5072236;28;20041;-77
2021/12/09 08:18:57;;;;;;;29.05;13.98;;;;;;;;;;5087490;28;20048;-78
2021/12/09 08:21:24;;;;;;;37.67;15.45;;;;;;;;;;5086549;28;20047;-77
2021/12/09 08:23:51;;;;;;;28.27;14.50;;;;;;;;;;5085314;28;20032;-78
2021/12/09 08:26:17;;;;;;;25.75;12.02;;;;;;;;;;5090029;28;20051;-78
2021/12/09 08:28:43;;;;;;;29.98;11.77;;;;;;;;;;5088852;28;20055;-78
2021/12/09 08:31:09;;;;;;;27.17;12.00;;;;;;;;;;5067133;28;20106;-77
2021/12/09 08:33:35;;;;;;;27.13;10.98;;;;;;;;;;5083987;28;20044;-80
2021/12/09 08:36:01;;;;;;;27.70;11.18;;;;;;;;;;5070704;28;20052;-82
2021/12/09 08:38:27;;;;;;;28.35;10.45;;;;;;;;;;5085874;28;20037;-78
2021/12/09 08:40:53;;;;;;;21.58;10.00;;;;;;;;;;5067666;28;20041;-81
2021/12/09 08:43:19;;;;;;;30.05;9.07;;;;;;;;;;5067796;28;20040;-80
2021/12/09 08:45:45;;;;;;;22.13;8.93;;;;;;;;;;5066435;28;20040;-78
2021/12/09 08:48:11;;;;;;;26.85;8.85;;;;;;;;;;5081390;28;20079;-76
2021/12/09 08:50:37;;;;;;;17.13;7.57;;;;;;;;;;5070885;28;20051;-78
2021/12/09 08:53:05;;;;;;;22.10;7.05;;;;;;;;;;5077990;28;20045;-79
2021/12/09 08:55:31;;;;;;;22.85;8.13;;;;;;;;;;5090738;28;20040;-80
2021/12/09 08:57:57;;;;;;;15.25;7.03;;;;;;;;;;5071358;28;20044;-77
2021/12/09 09:00:26;;;;;;;13.98;6.10;;;;;;;;;;5067420;28;20044;-77
2021/12/09 09:02:52;;;;;;;20.98;6.80;;;;;;;;;;5082732;28;20040;-77
2021/12/09 09:05:18;;;;;;;20.45;6.35;;;;;;;;;;5082207;28;20090;-77
2021/12/09 09:07:45;;;;;;;18.92;5.88;;;;;;;;;;5080877;28;20036;-80
2021/12/09 09:10:11;;;;;;;17.40;6.90;;;;;;;;;;5080101;28;20134;-80
2021/12/09 09:12:37;;;;;;;16.10;7.35;;;;;;;;;;5082370;28;20071;-80
2021/12/09 09:15:07;;;;;;;16.10;7.30;;;;;;;;;;5087593;28;20044;-81
2021/12/09 09:17:33;;;;;;;19.75;6.53;;;;;;;;;;5072010;28;20042;-80
2021/12/09 09:19:59;;;;;;;16.83;6.53;;;;;;;;;;5069265;28;20586;-81
2021/12/09 09:22:25;;;;;;;17.50;6.95;;;;;;;;;;5085009;28;20032;-81
2021/12/09 09:24:51;;;;;;;17.73;5.60;;;;;;;;;;5066146;28;20037;-79
2021/12/09 09:27:18;;;;;;;21.42;6.20;;;;;;;;;;5088711;28;20034;-79
2021/12/09 09:29:44;;;;;;;14.20;5.65;;;;;;;;;;5071954;28;20051;-78
2021/12/09 09:32:13;;;;;;;15.18;6.05;;;;;;;;;;5090373;28;20066;-80
2021/12/09 09:34:39;;;;;;;19.40;5.72;;;;;;;;;;5083261;28;20117;-80
2021/12/09 09:37:05;;;;;;;18.98;5.65;;;;;;;;;;5068344;28;20064;-80
2021/12/09 09:39:32;;;;;;;17.25;4.80;;;;;;;;;;5092472;28;20037;-78
2021/12/09 09:42:31;;;;;;;11.70;4.50;;;;;;;;;;5094539;28;20040;-80
2021/12/09 09:44:54;;;;;;;13.55;5.28;;;;;;;;;;5083090;28;20033;-79
2021/12/09 09:47:21;;;;;;;17.13;5.78;;;;;;;;;;5092285;28;20045;-80
2021/12/09 09:49:47;;;;;;;15.70;6.25;;;;;;;;;;5080774;28;20041;-77
2021/12/09 09:52:13;;;;;;;16.77;5.60;;;;;;;;;;5079725;28;20079;-77
2021/12/09 09:54:40;;;;;;;13.57;6.07;;;;;;;;;;5079666;28;20040;-77
2021/12/09 09:57:06;;;;;;;14.55;5.45;;;;;;;;;;5079748;28;20090;-77
2021/12/09 09:59:32;;;;;;;15.32;5.85;;;;;;;;;;5078971;28;20041;-77
2021/12/09 10:01:58;;;;;;;16.45;5.90;;;;;;;;;;5078577;28;20047;-77
2021/12/09 10:07:00;;;;;;;17.90;5.95;;;;;;;;;;5080345;28;20334;-76
2021/12/09 10:09:26;;;;;;;14.40;6.53;;;;;;;;;;5062532;28;20051;-77
2021/12/09 10:11:55;;;;;;;16.30;6.70;;;;;;;;;;5062894;28;20048;-78
2021/12/09 10:14:25;;;;;;;21.88;6.07;;;;;;;;;;5062853;28;20111;-76
2021/12/09 10:17:07;;;;;;;16.40;6.10;;;;;;;;;;5063468;28;20052;-79
2021/12/09 10:19:34;;;;;;;21.30;6.40;;;;;;;;;;5080912;28;20064;-78
2021/12/09 10:22:08;;;;;;;13.05;5.47;;;;;;;;;;5078970;28;20037;-78
2021/12/09 10:24:34;;;;;;;13.68;5.80;;;;;;;;;;5078870;28;20037;-77
2021/12/09 10:27:00;;;;;;;20.75;6.50;;;;;;;;;;5080513;28;20050;-77
2021/12/09 10:29:33;;;;;;;15.55;5.57;;;;;;;;;;5079947;28;20119;-77
2021/12/09 10:32:01;;;;;;;15.00;6.03;;;;;;;;;;5062596;28;20044;-79
2021/12/09 10:37:00;;;;;;;13.88;6.18;;;;;;;;;;5078716;28;20486;-77
2021/12/09 10:39:27;;;;;;;14.57;5.88;;;;;;;;;;5080462;28;20044;-80
2021/12/09 10:41:53;;;;;;;11.35;5.72;;;;;;;;;;5079977;28;20088;-77
2021/12/09 10:44:30;;;;;;;14.30;6.22;;;;;;;;;;5078996;28;20033;-78
2021/12/09 10:47:06;;;;;;;11.48;5.50;;;;;;;;;;5065215;28;20040;-77
2021/12/09 10:49:41;;;;;;;16.83;6.53;;;;;;;;;;5067382;28;20036;-77
2021/12/09 10:52:24;;;;;;;14.73;6.65;;;;;;;;;;5083301;28;20041;-77
2021/12/09 10:54:50;;;;;;;16.20;6.25;;;;;;;;;;5083894;28;20409;-79
2021/12/09 10:57:23;;;;;;;13.13;5.93;;;;;;;;;;5067557;28;20040;-80
2021/12/09 10:59:49;;;;;;;13.50;5.65;;;;;;;;;;5069233;28;20059;-80
2021/12/09 11:02:15;;;;;;;19.40;6.35;;;;;;;;;;5087026;28;20040;-79
2021/12/09 11:04:41;;;;;;;12.65;5.57;;;;;;;;;;5069869;28;20116;-79
2021/12/09 11:07:26;;;;;;;10.35;5.13;;;;;;;;;;5086034;28;20360;-78
2021/12/09 11:10:12;;;;;;;21.27;6.05;;;;;;;;;;5066711;28;20036;-77
2021/12/09 11:12:38;;;;;;;17.88;5.65;;;;;;;;;;5082936;28;20037;-78
2021/12/09 11:15:05;;;;;;;15.13;5.75;;;;;;;;;;5084233;28;20048;-77
2021/12/09 11:17:41;;;;;;;17.75;6.03;;;;;;;;;;5086614;28;20055;-80
2021/12/09 11:20:07;;;;;;;14.75;5.88;;;;;;;;;;5089814;28;20061;-81
2021/12/09 11:22:37;;;;;;;13.23;5.80;;;;;;;;;;5070760;28;20063;-80
2021/12/09 11:25:05;;;;;;;16.05;6.40;;;;;;;;;;5086655;28;20040;-80
2021/12/09 11:27:31;;;;;;;14.25;6.40;;;;;;;;;;5084882;28;20441;-77
2021/12/09 11:30:09;;;;;;;11.13;6.18;;;;;;;;;;5065061;28;20029;-79
2021/12/09 11:32:46;;;;;;;16.35;6.85;;;;;;;;;;5069582;28;20048;-77
2021/12/09 11:35:15;;;;;;;13.88;6.50;;;;;;;;;;5065175;28;20052;-77
2021/12/09 11:37:47;;;;;;;13.40;6.32;;;;;;;;;;5079488;28;20083;-77
2021/12/09 11:40:13;;;;;;;14.85;5.80;;;;;;;;;;5084780;28;20049;-78
2021/12/09 11:42:55;;;;;;;10.65;6.10;;;;;;;;;;5083855;28;20111;-77
2021/12/09 11:45:24;;;;;;;17.63;6.95;;;;;;;;;;5067893;28;20048;-80
2021/12/09 11:47:50;;;;;;;13.98;6.53;;;;;;;;;;5084236;28;20419;-78
2021/12/09 11:50:17;;;;;;;13.32;6.60;;;;;;;;;;5068614;28;20118;-78
2021/12/09 11:52:43;;;;;;;18.95;7.13;;;;;;;;;;5085754;28;20040;-79
2021/12/09 11:55:11;;;;;;;12.95;6.82;;;;;;;;;;5085866;28;20037;-79
2021/12/09 11:57:48;;;;;;;20.40;6.63;;;;;;;;;;5087328;28;20040;-80
2021/12/09 12:11:55;;;;;;;16.30;7.28;;;;;;;;;;5085203;28;20119;-79
2021/12/09 12:14:29;;;;;;;19.95;6.72;;;;;;;;;;5070712;28;20095;-80
2021/12/09 12:19:45;;;;;;;14.85;6.32;;;;;;;;;;5084962;28;20041;-79
2021/12/09 12:22:43;;;;;;;10.60;5.90;;;;;;;;;;5086361;28;20065;-81
2021/12/09 12:25:27;;;;;;;13.82;6.20;;;;;;;;;;5088606;28;20040;-80
2021/12/09 12:28:01;;;;;;;24.20;6.20;;;;;;;;;;5083714;28;20044;-80
2021/12/09 12:31:15;;;;;;;17.95;6.40;;;;;;;;;;5070952;28;20076;-81
2021/12/09 12:33:52;;;;;;;11.50;6.32;;;;;;;;;;5085123;28;20490;-78
2021/12/09 12:36:40;;;;;;;13.55;5.90;;;;;;;;;;5085985;28;20050;-78
2021/12/09 12:39:18;;;;;;;16.30;6.47;;;;;;;;;;5083062;28;20060;-78
2021/12/09 12:42:02;;;;;;;14.68;6.53;;;;;;;;;;5085058;28;20353;-81
2021/12/09 12:44:28;;;;;;;11.38;6.18;;;;;;;;;;5092071;28;20040;-80
2021/12/09 12:47:01;;;;;;;11.35;6.40;;;;;;;;;;5091386;28;20056;-81
2021/12/09 12:49:36;;;;;;;9.48;5.25;;;;;;;;;;5073926;28;20040;-80
2021/12/09 12:52:08;;;;;;;13.05;6.45;;;;;;;;;;5087558;28;20044;-80
2021/12/09 12:57:16;;;;;;;16.40;6.43;;;;;;;;;;5092780;28;20067;-81
2021/12/09 12:59:46;;;;;;;15.55;6.15;;;;;;;;;;5090701;28;20060;-82
2021/12/09 13:02:51;;;;;;;12.82;5.82;;;;;;;;;;5073593;28;20131;-82
2021/12/09 13:05:07;;;;;;;12.48;5.72;;;;;;;;;;5090929;28;20055;-82
2021/12/09 13:10:20;;;;;;;11.40;5.50;;;;;;;;;;5090624;28;20036;-83
2021/12/09 13:12:56;;;;;;;14.07;5.45;;;;;;;;;;5091938;28;20041;-82
2021/12/09 13:15:27;;;;;;;11.77;5.35;;;;;;;;;;5092668;28;20048;-82
2021/12/09 13:18:02;;;;;;;13.43;4.93;;;;;;;;;;5075538;28;20041;-80
2021/12/09 13:20:28;;;;;;;17.17;5.30;;;;;;;;;;5091438;28;20041;-81
2021/12/09 13:23:19;;;;;;;19.10;5.32;;;;;;;;;;5091109;28;20067;-82
2021/12/09 13:26:07;;;;;;;15.18;5.63;;;;;;;;;;5091246;28;20040;-83
2021/12/09 13:28:39;;;;;;;11.25;5.07;;;;;;;;;;5091708;28;20036;-80
2021/12/09 13:31:21;;;;;;;9.73;4.93;;;;;;;;;;5074947;28;20083;-79
2021/12/09 13:34:05;;;;;;;15.52;6.07;;;;;;;;;;5091467;28;20048;-81
2021/12/09 13:36:50;;;;;;;10.15;4.68;;;;;;;;;;5091362;28;20432;-80
2021/12/09 13:39:28;;;;;;;13.40;4.88;;;;;;;;;;5092001;28;20063;-81
2021/12/09 13:55:11;;;;;;;16.33;4.82;;;;;;;;;;5092066;28;20036;-81
2021/12/09 13:57:38;;;;;;;12.68;4.47;;;;;;;;;;5091418;28;20032;-81
2021/12/09 14:00:06;;;;;;;11.52;4.47;;;;;;;;;;5091714;28;20051;-80
2021/12/09 14:02:32;;;;;;;14.68;5.32;;;;;;;;;;5091239;28;20135;-82
2021/12/09 14:04:58;;;;;;;10.68;4.50;;;;;;;;;;5090380;28;20407;-80
2021/12/09 14:07:33;;;;;;;13.05;4.97;;;;;;;;;;5091834;28;20037;-80
2021/12/09 14:10:01;;;;;;;15.73;4.90;;;;;;;;;;5073244;28;20033;-81
2021/12/09 14:12:31;;;;;;;15.63;5.00;;;;;;;;;;5072800;28;20040;-81
2021/12/09 14:15:06;;;;;;;12.05;5.20;;;;;;;;;;5074636;28;20068;-82
2021/12/09 14:17:32;;;;;;;10.25;5.05;;;;;;;;;;5074425;28;20033;-81
2021/12/09 14:20:00;;;;;;;13.40;4.90;;;;;;;;;;5090157;28;20053;-80
2021/12/09 14:22:29;;;;;;;13.18;5.32;;;;;;;;;;5093219;28;20142;-81
2021/12/09 14:24:56;;;;;;;16.40;5.30;;;;;;;;;;5094288;28;20041;-81
2021/12/09 14:27:22;;;;;;;9.65;4.65;;;;;;;;;;5094920;28;20036;-82
2021/12/09 14:29:52;;;;;;;20.90;5.78;;;;;;;;;;5092497;28;20045;-80
2021/12/09 14:32:18;;;;;;;16.02;5.07;;;;;;;;;;5076548;28;20040;-81
2021/12/09 14:34:45;;;;;;;16.85;5.10;;;;;;;;;;5092544;28;20090;-81
2021/12/09 14:37:12;;;;;;;11.88;4.53;;;;;;;;;;5075181;28;20052;-81
2021/12/09 14:39:38;;;;;;;13.75;4.75;;;;;;;;;;5091628;28;20096;-81
2021/12/09 14:42:20;;;;;;;10.20;4.93;;;;;;;;;;5089459;28;20037;-81
2021/12/09 14:44:54;;;;;;;14.73;5.50;;;;;;;;;;5087002;28;20056;-79
2021/12/09 14:47:20;;;;;;;18.05;5.35;;;;;;;;;;5081524;28;20054;-79
2021/12/09 14:49:47;;;;;;;15.00;5.35;;;;;;;;;;5085875;28;20428;-79
2021/12/09 14:52:13;;;;;;;9.63;4.82;;;;;;;;;;5084799;28;20066;-79
2021/12/09 14:54:39;;;;;;;16.02;4.88;;;;;;;;;;5068601;28;20043;-80
2021/12/09 14:57:06;;;;;;;13.50;4.93;;;;;;;;;;5091516;28;20047;-79
2021/12/09 14:59:39;;;;;;;15.57;5.05;;;;;;;;;;5093435;28;20056;-80
2021/12/09 15:02:05;;;;;;;;;;;;;;;;;;5089851;28;20037;-80
2021/12/09 15:04:44;;;;;;;11.02;4.82;;;;;;;;;;5085463;28;19923;-80
2021/12/09 15:07:59;;;;;;;9.98;4.53;;;;;;;;;;5084507;28;20084;-80
2021/12/09 15:10:18;;;;;;;12.48;5.20;;;;;;;;;;5083709;28;20051;-81
2021/12/09 15:12:45;;;;;;;10.93;4.90;;;;;;;;;;5073416;28;20041;-80
2021/12/09 15:15:17;;;;;;;9.20;4.85;;;;;;;;;;5071934;28;20071;-80